GIA6108 WIMM-OEMA
Flight info
| Callsign | GIA6108 |
|---|---|
| Flight time | N/A |
| Altitude | 34000 |
| Route | DUDEN DCT BULVA M300 LOTAV N569 TOKRA/N0438F280 Y511 ITRUX/N0469F340 Y511 ELONU |
| Aircraft | A339/H-SADE1E2E3GHIJ3J5M1P2RWXY/LB2D1 |
Departure
| Time | N/A |
|---|---|
| Airport | Kualanamu International Airport (WIMM) |
Arrival
| Time | 2026-04-24 15:36 |
|---|---|
| Airport | Prince Mohammad Bin Abdulaziz Airport (OEMA) |
| Time | Latitude | Longitude | Altitude | Speed | Heading |
|---|---|---|---|---|---|
| 2026-04-24 09:14 | 7.11028 | 86.19903 | 33877 ft | 481 kts | 289° |
| 2026-04-24 09:14 | 7.12200 | 86.16764 | 33878 ft | 481 kts | 289° |
| 2026-04-24 09:14 | 7.14555 | 86.10453 | 33879 ft | 481 kts | 289° |
| 2026-04-24 09:15 | 7.16901 | 86.04166 | 33879 ft | 481 kts | 289° |
| 2026-04-24 09:15 | 7.19259 | 85.97845 | 33879 ft | 481 kts | 289° |
| 2026-04-24 09:16 | 7.21611 | 85.91534 | 33879 ft | 481 kts | 289° |
| 2026-04-24 09:16 | 7.23957 | 85.85239 | 33879 ft | 481 kts | 289° |
| 2026-04-24 09:17 | 7.26296 | 85.78959 | 33879 ft | 481 kts | 289° |
| 2026-04-24 09:17 | 7.28654 | 85.72623 | 33879 ft | 481 kts | 289° |
| 2026-04-24 09:18 | 7.30999 | 85.66322 | 33879 ft | 481 kts | 289° |
| 2026-04-24 09:18 | 7.33331 | 85.60049 | 33879 ft | 481 kts | 289° |
| 2026-04-24 09:19 | 7.35668 | 85.53763 | 33879 ft | 481 kts | 289° |
| 2026-04-24 09:19 | 7.38021 | 85.47430 | 33879 ft | 481 kts | 289° |
| 2026-04-24 09:20 | 7.40347 | 85.41166 | 33879 ft | 481 kts | 289° |
| 2026-04-24 09:20 | 7.42687 | 85.34860 | 33879 ft | 481 kts | 289° |
| 2026-04-24 09:21 | 7.44942 | 85.28526 | 33879 ft | 481 kts | 287° |
| 2026-04-24 09:21 | 7.47030 | 85.22133 | 33852 ft | 480 kts | 287° |
| 2026-04-24 09:22 | 7.49110 | 85.15731 | 33818 ft | 481 kts | 287° |
| 2026-04-24 09:22 | 7.51197 | 85.09309 | 33803 ft | 485 kts | 287° |
| 2026-04-24 09:23 | 7.53290 | 85.02867 | 33798 ft | 489 kts | 287° |
| 2026-04-24 09:23 | 7.55410 | 84.96343 | 33797 ft | 492 kts | 288° |
| 2026-04-24 09:24 | 7.57538 | 84.89803 | 33798 ft | 493 kts | 288° |
| 2026-04-24 09:24 | 7.59675 | 84.83240 | 33798 ft | 493 kts | 288° |
| 2026-04-24 09:25 | 7.61811 | 84.76668 | 33798 ft | 493 kts | 288° |
| 2026-04-24 09:25 | 7.63951 | 84.70078 | 33798 ft | 493 kts | 288° |
| 2026-04-24 09:26 | 7.66064 | 84.63566 | 33798 ft | 493 kts | 288° |
| 2026-04-24 09:26 | 7.68201 | 84.56973 | 33798 ft | 493 kts | 288° |
| 2026-04-24 09:27 | 7.70327 | 84.50411 | 33798 ft | 493 kts | 288° |
| 2026-04-24 09:27 | 7.72461 | 84.43825 | 33798 ft | 493 kts | 288° |
| 2026-04-24 09:28 | 7.74571 | 84.37303 | 33798 ft | 493 kts | 288° |
| 2026-04-24 09:28 | 7.76707 | 84.30703 | 33797 ft | 493 kts | 288° |
| 2026-04-24 09:29 | 7.78816 | 84.24181 | 33798 ft | 493 kts | 288° |
| 2026-04-24 09:29 | 7.80952 | 84.17572 | 33798 ft | 493 kts | 288° |
| 2026-04-24 09:30 | 7.83068 | 84.11019 | 33798 ft | 493 kts | 288° |
| 2026-04-24 09:30 | 7.85183 | 84.04467 | 33798 ft | 493 kts | 288° |
| 2026-04-24 09:31 | 7.87295 | 83.97920 | 33798 ft | 493 kts | 288° |
| 2026-04-24 09:31 | 7.89419 | 83.91331 | 33798 ft | 493 kts | 288° |
| 2026-04-24 09:32 | 7.91527 | 83.84785 | 33798 ft | 493 kts | 288° |
| 2026-04-24 09:32 | 7.93654 | 83.78181 | 33798 ft | 493 kts | 288° |
| 2026-04-24 09:33 | 7.95757 | 83.71646 | 33798 ft | 493 kts | 288° |
| 2026-04-24 09:33 | 7.97871 | 83.65074 | 33798 ft | 493 kts | 288° |
| 2026-04-24 09:34 | 7.99989 | 83.58482 | 33807 ft | 494 kts | 288° |
| 2026-04-24 09:34 | 8.01048 | 83.55185 | 33989 ft | 496 kts | 288° |
| 2026-04-24 09:34 | 8.02105 | 83.51894 | 34304 ft | 494 kts | 288° |
| 2026-04-24 09:35 | 8.03158 | 83.48614 | 34624 ft | 492 kts | 288° |
| 2026-04-24 09:35 | 8.04204 | 83.45357 | 34910 ft | 490 kts | 288° |
| 2026-04-24 09:35 | 8.05253 | 83.42090 | 35170 ft | 490 kts | 288° |
| 2026-04-24 09:35 | 8.06300 | 83.38825 | 35414 ft | 489 kts | 288° |
| 2026-04-24 09:36 | 8.07343 | 83.35574 | 35653 ft | 488 kts | 288° |
| 2026-04-24 09:36 | 8.08381 | 83.32336 | 35787 ft | 489 kts | 288° |
| 2026-04-24 09:36 | 8.10477 | 83.25798 | 35809 ft | 488 kts | 288° |
| 2026-04-24 09:37 | 8.12555 | 83.19309 | 35901 ft | 488 kts | 288° |
| 2026-04-24 09:37 | 8.14637 | 83.12804 | 35960 ft | 487 kts | 288° |
| 2026-04-24 09:38 | 8.16718 | 83.06300 | 35984 ft | 487 kts | 288° |
| 2026-04-24 09:38 | 8.18791 | 82.99812 | 35992 ft | 487 kts | 288° |
| 2026-04-24 09:39 | 8.20863 | 82.93317 | 35995 ft | 487 kts | 288° |
| 2026-04-24 09:39 | 8.22937 | 82.86829 | 35996 ft | 487 kts | 289° |
| 2026-04-24 09:40 | 8.25127 | 82.80370 | 35996 ft | 487 kts | 290° |
| 2026-04-24 09:40 | 8.27347 | 82.73958 | 35996 ft | 486 kts | 290° |
| 2026-04-24 09:41 | 8.29566 | 82.67517 | 35996 ft | 486 kts | 290° |
| 2026-04-24 09:41 | 8.31765 | 82.61111 | 35996 ft | 486 kts | 290° |
| 2026-04-24 09:42 | 8.33971 | 82.54673 | 35996 ft | 486 kts | 290° |
| 2026-04-24 09:42 | 8.36175 | 82.48235 | 35996 ft | 486 kts | 290° |
| 2026-04-24 09:43 | 8.38383 | 82.41779 | 35996 ft | 486 kts | 290° |
| 2026-04-24 09:43 | 8.40586 | 82.35332 | 35996 ft | 486 kts | 290° |
| 2026-04-24 09:44 | 8.42775 | 82.28925 | 35995 ft | 486 kts | 290° |
| 2026-04-24 09:44 | 8.44982 | 82.22459 | 35996 ft | 486 kts | 290° |
| 2026-04-24 09:45 | 8.47178 | 82.16026 | 35996 ft | 486 kts | 290° |
| 2026-04-24 09:45 | 8.49372 | 82.09590 | 35995 ft | 486 kts | 290° |
| 2026-04-24 09:46 | 8.51574 | 82.03130 | 35979 ft | 486 kts | 290° |
| 2026-04-24 09:46 | 8.53762 | 81.96704 | 35935 ft | 486 kts | 290° |
| 2026-04-24 09:47 | 8.55960 | 81.90249 | 35879 ft | 487 kts | 290° |
| 2026-04-24 09:47 | 8.58160 | 81.83781 | 35829 ft | 487 kts | 290° |
| 2026-04-24 09:48 | 8.60347 | 81.77348 | 35794 ft | 488 kts | 290° |
| 2026-04-24 09:48 | 8.62554 | 81.70851 | 35779 ft | 488 kts | 290° |
| 2026-04-24 09:49 | 8.64737 | 81.64423 | 35773 ft | 488 kts | 290° |
| 2026-04-24 09:49 | 8.66943 | 81.57925 | 35771 ft | 488 kts | 290° |
| 2026-04-24 09:50 | 8.69139 | 81.51448 | 35771 ft | 488 kts | 290° |
| 2026-04-24 09:50 | 8.71335 | 81.44968 | 35771 ft | 488 kts | 290° |
| 2026-04-24 09:51 | 8.73514 | 81.38535 | 35771 ft | 488 kts | 290° |
| 2026-04-24 09:51 | 8.75705 | 81.32065 | 35770 ft | 488 kts | 290° |
| 2026-04-24 09:52 | 8.77898 | 81.25583 | 35771 ft | 488 kts | 290° |
| 2026-04-24 09:52 | 8.80083 | 81.19119 | 35771 ft | 488 kts | 290° |
| 2026-04-24 09:53 | 8.82273 | 81.12638 | 35771 ft | 488 kts | 290° |
| 2026-04-24 09:53 | 8.84462 | 81.06163 | 35771 ft | 488 kts | 290° |
| 2026-04-24 09:54 | 8.86655 | 80.99670 | 35771 ft | 487 kts | 289° |
| 2026-04-24 09:54 | 8.88825 | 80.93239 | 35771 ft | 487 kts | 289° |
| 2026-04-24 09:55 | 8.91001 | 80.86781 | 35771 ft | 486 kts | 289° |
| 2026-04-24 09:55 | 8.93184 | 80.80294 | 35771 ft | 485 kts | 289° |
| 2026-04-24 09:56 | 8.95341 | 80.73879 | 35771 ft | 485 kts | 289° |
| 2026-04-24 09:56 | 8.97510 | 80.67430 | 35770 ft | 486 kts | 289° |
| 2026-04-24 09:57 | 8.99680 | 80.60973 | 35770 ft | 487 kts | 289° |
| 2026-04-24 09:57 | 9.01881 | 80.54421 | 35770 ft | 489 kts | 289° |
| 2026-04-24 09:58 | 9.04072 | 80.47895 | 35770 ft | 490 kts | 289° |
| 2026-04-24 09:58 | 9.06271 | 80.41338 | 35770 ft | 492 kts | 289° |
| 2026-04-24 09:59 | 9.08477 | 80.34760 | 35770 ft | 494 kts | 289° |
| 2026-04-24 09:59 | 9.10669 | 80.28223 | 35770 ft | 495 kts | 289° |
| 2026-04-24 10:00 | 9.12880 | 80.21619 | 35770 ft | 496 kts | 290° |
| 2026-04-24 10:00 | 9.15105 | 80.14973 | 35771 ft | 497 kts | 290° |
| 2026-04-24 10:01 | 9.17310 | 80.08381 | 35771 ft | 497 kts | 290° |
| 2026-04-24 10:01 | 9.19531 | 80.01732 | 35771 ft | 497 kts | 290° |
| 2026-04-24 10:02 | 9.21730 | 79.95152 | 35771 ft | 497 kts | 290° |
| 2026-04-24 10:02 | 9.23946 | 79.88517 | 35771 ft | 497 kts | 290° |
| 2026-04-24 10:03 | 9.26161 | 79.81878 | 35771 ft | 497 kts | 290° |
| 2026-04-24 10:03 | 9.28363 | 79.75273 | 35771 ft | 497 kts | 290° |
| 2026-04-24 10:04 | 9.30580 | 79.68617 | 35771 ft | 497 kts | 290° |
| 2026-04-24 10:04 | 9.32775 | 79.62030 | 35771 ft | 497 kts | 290° |
| 2026-04-24 10:05 | 9.34987 | 79.55412 | 35771 ft | 497 kts | 290° |
| 2026-04-24 10:05 | 9.37202 | 79.48779 | 35771 ft | 497 kts | 290° |
| 2026-04-24 10:06 | 9.40515 | 79.38847 | 35771 ft | 497 kts | 290° |
| 2026-04-24 10:07 | 9.42727 | 79.32209 | 35769 ft | 497 kts | 289° |
| 2026-04-24 10:07 | 9.44937 | 79.25571 | 35771 ft | 497 kts | 289° |
| 2026-04-24 10:08 | 9.47131 | 79.18977 | 35771 ft | 497 kts | 289° |
| 2026-04-24 10:08 | 9.49331 | 79.12354 | 35771 ft | 497 kts | 290° |
| 2026-04-24 10:09 | 9.51516 | 79.05713 | 35771 ft | 497 kts | 290° |
| 2026-04-24 10:09 | 9.53686 | 78.99094 | 35771 ft | 497 kts | 290° |
| 2026-04-24 10:10 | 9.55873 | 78.92421 | 35771 ft | 497 kts | 290° |
| 2026-04-24 10:10 | 9.58046 | 78.85798 | 35771 ft | 497 kts | 290° |
| 2026-04-24 10:11 | 9.60218 | 78.79163 | 35771 ft | 497 kts | 290° |
| 2026-04-24 10:11 | 9.62397 | 78.72508 | 35771 ft | 497 kts | 290° |
| 2026-04-24 10:12 | 9.64564 | 78.65881 | 35771 ft | 497 kts | 290° |
| 2026-04-24 10:12 | 9.66734 | 78.59242 | 35771 ft | 497 kts | 290° |
| 2026-04-24 10:13 | 9.68906 | 78.52587 | 35771 ft | 497 kts | 290° |
| 2026-04-24 10:13 | 9.71063 | 78.45976 | 35771 ft | 497 kts | 290° |
| 2026-04-24 10:14 | 9.73237 | 78.39306 | 35771 ft | 497 kts | 290° |
| 2026-04-24 10:14 | 9.75394 | 78.32688 | 35769 ft | 497 kts | 290° |
| 2026-04-24 10:15 | 9.77565 | 78.26019 | 35770 ft | 497 kts | 290° |
| 2026-04-24 10:15 | 9.79722 | 78.19386 | 35771 ft | 497 kts | 290° |
| 2026-04-24 10:16 | 9.81970 | 78.12784 | 35771 ft | 496 kts | 294° |
| 2026-04-24 10:16 | 9.84817 | 78.06451 | 35771 ft | 494 kts | 300° |
| 2026-04-24 10:17 | 9.88310 | 78.00452 | 35771 ft | 492 kts | 304° |
| 2026-04-24 10:17 | 9.91966 | 77.94564 | 35771 ft | 492 kts | 305° |
| 2026-04-24 10:18 | 9.95587 | 77.88718 | 35771 ft | 492 kts | 305° |
| 2026-04-24 10:18 | 9.99209 | 77.82844 | 35771 ft | 492 kts | 304° |
| 2026-04-24 10:19 | 10.02829 | 77.76962 | 35771 ft | 492 kts | 304° |
| 2026-04-24 10:19 | 10.06470 | 77.71040 | 35771 ft | 492 kts | 304° |
| 2026-04-24 10:20 | 10.10088 | 77.65151 | 35771 ft | 492 kts | 304° |
| 2026-04-24 10:20 | 10.13715 | 77.59246 | 35771 ft | 492 kts | 304° |
| 2026-04-24 10:21 | 10.17323 | 77.53368 | 35771 ft | 492 kts | 304° |
| 2026-04-24 10:21 | 10.20948 | 77.47460 | 35771 ft | 492 kts | 304° |
| 2026-04-24 10:22 | 10.24527 | 77.41623 | 35771 ft | 492 kts | 304° |
| 2026-04-24 10:22 | 10.28169 | 77.35681 | 35771 ft | 492 kts | 304° |
| 2026-04-24 10:23 | 10.31759 | 77.29820 | 35798 ft | 492 kts | 304° |
| 2026-04-24 10:23 | 10.35376 | 77.23911 | 35827 ft | 492 kts | 304° |
| 2026-04-24 10:24 | 10.38983 | 77.18015 | 35839 ft | 492 kts | 304° |
| 2026-04-24 10:24 | 10.42595 | 77.12111 | 35845 ft | 492 kts | 304° |
| 2026-04-24 10:25 | 10.46197 | 77.06218 | 35849 ft | 492 kts | 304° |
| 2026-04-24 10:25 | 10.49787 | 77.00343 | 35850 ft | 492 kts | 304° |
| 2026-04-24 10:26 | 10.53394 | 76.94437 | 35848 ft | 493 kts | 304° |
| 2026-04-24 10:26 | 10.56999 | 76.88531 | 35847 ft | 494 kts | 304° |
| 2026-04-24 10:27 | 10.60596 | 76.82634 | 35849 ft | 495 kts | 304° |
| 2026-04-24 10:27 | 10.64239 | 76.76658 | 35850 ft | 495 kts | 304° |
| 2026-04-24 10:28 | 10.67844 | 76.70740 | 35847 ft | 496 kts | 304° |
| 2026-04-24 10:28 | 10.71463 | 76.64793 | 35845 ft | 496 kts | 304° |
| 2026-04-24 10:29 | 10.75083 | 76.58847 | 35847 ft | 496 kts | 304° |
| 2026-04-24 10:29 | 10.78704 | 76.52893 | 35849 ft | 496 kts | 304° |
| 2026-04-24 10:30 | 10.82299 | 76.46980 | 35844 ft | 495 kts | 304° |
| 2026-04-24 10:30 | 10.85935 | 76.40995 | 35830 ft | 495 kts | 304° |
| 2026-04-24 10:31 | 10.89537 | 76.35064 | 35813 ft | 495 kts | 304° |
| 2026-04-24 10:31 | 10.93154 | 76.29108 | 35794 ft | 494 kts | 304° |
| 2026-04-24 10:32 | 10.96748 | 76.23183 | 35781 ft | 493 kts | 303° |
| 2026-04-24 10:32 | 11.00322 | 76.17287 | 35775 ft | 492 kts | 303° |
| 2026-04-24 10:33 | 11.03912 | 76.11362 | 35772 ft | 491 kts | 303° |
| 2026-04-24 10:33 | 11.07488 | 76.05453 | 35771 ft | 490 kts | 303° |
| 2026-04-24 10:34 | 11.11067 | 75.99535 | 35771 ft | 490 kts | 303° |
| 2026-04-24 10:34 | 11.14757 | 75.93721 | 35771 ft | 489 kts | 307° |
| 2026-04-24 10:35 | 11.18716 | 75.88059 | 35771 ft | 489 kts | 307° |
| 2026-04-24 10:35 | 11.22655 | 75.82452 | 35771 ft | 489 kts | 307° |
| 2026-04-24 10:36 | 11.26528 | 75.76750 | 35771 ft | 490 kts | 306° |
| 2026-04-24 10:36 | 11.30346 | 75.71030 | 35771 ft | 489 kts | 306° |
| 2026-04-24 10:37 | 11.34175 | 75.65301 | 35771 ft | 490 kts | 306° |
| 2026-04-24 10:37 | 11.38008 | 75.59574 | 35771 ft | 489 kts | 306° |
| 2026-04-24 10:38 | 11.41830 | 75.53863 | 35771 ft | 489 kts | 306° |
| 2026-04-24 10:38 | 11.45643 | 75.48164 | 35771 ft | 489 kts | 306° |
| 2026-04-24 10:39 | 11.49490 | 75.42410 | 35771 ft | 489 kts | 306° |
| 2026-04-24 10:39 | 11.53307 | 75.36699 | 35771 ft | 489 kts | 306° |
| 2026-04-24 10:40 | 11.57149 | 75.30948 | 35770 ft | 489 kts | 306° |
| 2026-04-24 10:40 | 11.60970 | 75.25223 | 35771 ft | 489 kts | 306° |
| 2026-04-24 10:41 | 11.64765 | 75.19536 | 35771 ft | 489 kts | 306° |
| 2026-04-24 10:41 | 11.68596 | 75.13790 | 35771 ft | 489 kts | 306° |
| 2026-04-24 10:42 | 11.72403 | 75.08076 | 35771 ft | 489 kts | 306° |
| 2026-04-24 10:42 | 11.76216 | 75.02351 | 35771 ft | 489 kts | 306° |
| 2026-04-24 10:43 | 11.80049 | 74.96590 | 35771 ft | 489 kts | 306° |
| 2026-04-24 10:43 | 11.83842 | 74.90889 | 35771 ft | 489 kts | 306° |
| 2026-04-24 10:44 | 11.87661 | 74.85146 | 35771 ft | 489 kts | 306° |
| 2026-04-24 10:44 | 11.91457 | 74.79434 | 35771 ft | 489 kts | 306° |
| 2026-04-24 10:45 | 11.95217 | 74.73772 | 35771 ft | 489 kts | 306° |
| 2026-04-24 10:45 | 11.99010 | 74.68059 | 35771 ft | 489 kts | 306° |
| 2026-04-24 10:46 | 12.02795 | 74.62353 | 35771 ft | 489 kts | 306° |
| 2026-04-24 10:46 | 12.06578 | 74.56644 | 35771 ft | 489 kts | 306° |
| 2026-04-24 10:47 | 12.10342 | 74.50962 | 35771 ft | 489 kts | 306° |
| 2026-04-24 10:47 | 12.14154 | 74.45206 | 35771 ft | 489 kts | 306° |
| 2026-04-24 10:48 | 12.17928 | 74.39503 | 35771 ft | 489 kts | 306° |
| 2026-04-24 10:48 | 12.21721 | 74.33765 | 35769 ft | 489 kts | 306° |
| 2026-04-24 10:49 | 12.25524 | 74.28011 | 35770 ft | 489 kts | 306° |
| 2026-04-24 10:49 | 12.29271 | 74.22207 | 35771 ft | 489 kts | 305° |
| 2026-04-24 10:50 | 12.32944 | 74.16387 | 35771 ft | 489 kts | 305° |
| 2026-04-24 10:50 | 12.36616 | 74.10576 | 35771 ft | 489 kts | 305° |
| 2026-04-24 10:51 | 12.40325 | 74.04713 | 35771 ft | 489 kts | 305° |
| 2026-04-24 10:51 | 12.44010 | 73.98888 | 35771 ft | 489 kts | 305° |
| 2026-04-24 10:52 | 12.47679 | 73.93085 | 35771 ft | 489 kts | 305° |
| 2026-04-24 10:52 | 12.51370 | 73.87245 | 35771 ft | 489 kts | 305° |
| 2026-04-24 10:53 | 12.55051 | 73.81416 | 35771 ft | 489 kts | 305° |
| 2026-04-24 10:53 | 12.58713 | 73.75613 | 35771 ft | 489 kts | 305° |
| 2026-04-24 10:54 | 12.62391 | 73.69782 | 35771 ft | 490 kts | 305° |
| 2026-04-24 10:54 | 12.66083 | 73.63924 | 35771 ft | 489 kts | 305° |
| 2026-04-24 10:55 | 12.69743 | 73.58113 | 35771 ft | 489 kts | 305° |
| 2026-04-24 10:55 | 12.73441 | 73.52238 | 35771 ft | 489 kts | 305° |
| 2026-04-24 10:56 | 12.77103 | 73.46414 | 35771 ft | 489 kts | 305° |
| 2026-04-24 10:56 | 12.80773 | 73.40584 | 35771 ft | 489 kts | 305° |
| 2026-04-24 10:57 | 12.84451 | 73.34731 | 35770 ft | 489 kts | 305° |
| 2026-04-24 10:57 | 12.88119 | 73.28892 | 35770 ft | 489 kts | 305° |
| 2026-04-24 10:58 | 12.91788 | 73.23045 | 35771 ft | 490 kts | 304° |
| 2026-04-24 10:58 | 12.95469 | 73.17176 | 35771 ft | 490 kts | 304° |
| 2026-04-24 10:59 | 12.99144 | 73.11315 | 35770 ft | 491 kts | 304° |
| 2026-04-24 10:59 | 13.02824 | 73.05441 | 35771 ft | 492 kts | 304° |
| 2026-04-24 11:00 | 13.06517 | 72.99538 | 35771 ft | 493 kts | 304° |
| 2026-04-24 11:00 | 13.10205 | 72.93639 | 35771 ft | 492 kts | 304° |
| 2026-04-24 11:01 | 13.13888 | 72.87745 | 35771 ft | 491 kts | 304° |
| 2026-04-24 11:01 | 13.17563 | 72.81862 | 35771 ft | 491 kts | 304° |
| 2026-04-24 11:02 | 13.21227 | 72.75991 | 35771 ft | 491 kts | 304° |
| 2026-04-24 11:02 | 13.24906 | 72.70093 | 35771 ft | 491 kts | 304° |
| 2026-04-24 11:03 | 13.28553 | 72.64242 | 35771 ft | 491 kts | 304° |
| 2026-04-24 11:03 | 13.32195 | 72.58395 | 35771 ft | 491 kts | 304° |
| 2026-04-24 11:04 | 13.35841 | 72.52539 | 35768 ft | 491 kts | 304° |
| 2026-04-24 11:04 | 13.39498 | 72.46660 | 35764 ft | 491 kts | 304° |
| 2026-04-24 11:05 | 13.43182 | 72.40734 | 35757 ft | 491 kts | 304° |
| 2026-04-24 11:05 | 13.46841 | 72.34844 | 35750 ft | 491 kts | 304° |
| 2026-04-24 11:06 | 13.50516 | 72.28925 | 35745 ft | 491 kts | 304° |
| 2026-04-24 11:06 | 13.54187 | 72.23006 | 35743 ft | 491 kts | 304° |
| 2026-04-24 11:07 | 13.59663 | 72.14172 | 35743 ft | 491 kts | 304° |
| 2026-04-24 11:07 | 13.63340 | 72.08234 | 35743 ft | 491 kts | 304° |
| 2026-04-24 11:08 | 13.66989 | 72.02335 | 35743 ft | 491 kts | 304° |
| 2026-04-24 11:08 | 13.70676 | 71.96448 | 35742 ft | 491 kts | 305° |
| 2026-04-24 11:09 | 13.74410 | 71.90623 | 35743 ft | 491 kts | 305° |
| 2026-04-24 11:09 | 13.78140 | 71.84795 | 35742 ft | 491 kts | 305° |
| 2026-04-24 11:10 | 13.81916 | 71.78880 | 35743 ft | 491 kts | 305° |
| 2026-04-24 11:10 | 13.85649 | 71.73025 | 35745 ft | 491 kts | 305° |
| 2026-04-24 11:11 | 13.89322 | 71.67257 | 35755 ft | 491 kts | 305° |
| 2026-04-24 11:11 | 13.93028 | 71.61433 | 35762 ft | 491 kts | 305° |
| 2026-04-24 11:12 | 13.96687 | 71.55679 | 35766 ft | 491 kts | 305° |
| 2026-04-24 11:12 | 14.00382 | 71.49864 | 35768 ft | 491 kts | 305° |
| 2026-04-24 11:13 | 14.04096 | 71.44016 | 35769 ft | 491 kts | 305° |
| 2026-04-24 11:13 | 14.07804 | 71.38172 | 35769 ft | 490 kts | 305° |
| 2026-04-24 11:14 | 14.11521 | 71.32311 | 35767 ft | 490 kts | 304° |
| 2026-04-24 11:14 | 14.15226 | 71.26465 | 35769 ft | 490 kts | 304° |
| 2026-04-24 11:15 | 14.18938 | 71.20603 | 35769 ft | 491 kts | 304° |
| 2026-04-24 11:15 | 14.22688 | 71.14677 | 35769 ft | 491 kts | 304° |
| 2026-04-24 11:16 | 14.26400 | 71.08805 | 35769 ft | 491 kts | 304° |
| 2026-04-24 11:16 | 14.30126 | 71.02908 | 35769 ft | 491 kts | 304° |
| 2026-04-24 11:17 | 14.33815 | 70.97067 | 35770 ft | 490 kts | 304° |
| 2026-04-24 11:17 | 14.37561 | 70.91184 | 35770 ft | 488 kts | 304° |
| 2026-04-24 11:18 | 14.41300 | 70.85385 | 35770 ft | 486 kts | 304° |
| 2026-04-24 11:18 | 14.45023 | 70.79600 | 35771 ft | 484 kts | 304° |
| 2026-04-24 11:19 | 14.48753 | 70.73792 | 35771 ft | 483 kts | 304° |
| 2026-04-24 11:19 | 14.52455 | 70.68020 | 35771 ft | 483 kts | 304° |
| 2026-04-24 11:20 | 14.56157 | 70.62244 | 35771 ft | 483 kts | 304° |
| 2026-04-24 11:20 | 14.59846 | 70.56487 | 35773 ft | 483 kts | 304° |
| 2026-04-24 11:21 | 14.63550 | 70.50700 | 35783 ft | 483 kts | 304° |
| 2026-04-24 11:21 | 14.67268 | 70.44888 | 35793 ft | 483 kts | 304° |
| 2026-04-24 11:22 | 14.70970 | 70.39097 | 35797 ft | 483 kts | 304° |
| 2026-04-24 11:22 | 14.74664 | 70.33313 | 35793 ft | 483 kts | 304° |
| 2026-04-24 11:23 | 14.78355 | 70.27531 | 35791 ft | 483 kts | 304° |
| 2026-04-24 11:23 | 14.82045 | 70.21745 | 35794 ft | 483 kts | 304° |
| 2026-04-24 11:24 | 14.85731 | 70.15963 | 35797 ft | 483 kts | 304° |
| 2026-04-24 11:24 | 14.89435 | 70.10147 | 35794 ft | 483 kts | 304° |
| 2026-04-24 11:25 | 14.93126 | 70.04347 | 35789 ft | 485 kts | 304° |
| 2026-04-24 11:25 | 14.96840 | 69.98508 | 35795 ft | 486 kts | 304° |
| 2026-04-24 11:26 | 15.00550 | 69.92668 | 35808 ft | 488 kts | 304° |
| 2026-04-24 11:26 | 15.04270 | 69.86809 | 35826 ft | 489 kts | 303° |
| 2026-04-24 11:27 | 15.07996 | 69.80933 | 35841 ft | 490 kts | 303° |
| 2026-04-24 11:27 | 15.11717 | 69.75063 | 35842 ft | 490 kts | 304° |
| 2026-04-24 11:28 | 15.15470 | 69.69215 | 35840 ft | 490 kts | 304° |
| 2026-04-24 11:28 | 15.19233 | 69.63376 | 35840 ft | 490 kts | 304° |
| 2026-04-24 11:29 | 15.23009 | 69.57507 | 35845 ft | 490 kts | 304° |
| 2026-04-24 11:29 | 15.26775 | 69.51643 | 35849 ft | 490 kts | 304° |
| 2026-04-24 11:30 | 15.30524 | 69.45798 | 35851 ft | 490 kts | 304° |
| 2026-04-24 11:30 | 15.34298 | 69.39911 | 35851 ft | 490 kts | 304° |
| 2026-04-24 11:31 | 15.38047 | 69.34058 | 35849 ft | 490 kts | 304° |
| 2026-04-24 11:31 | 15.41781 | 69.28223 | 35835 ft | 490 kts | 304° |
| 2026-04-24 11:32 | 15.45551 | 69.22327 | 35806 ft | 490 kts | 304° |
| 2026-04-24 11:32 | 15.49297 | 69.16466 | 35777 ft | 490 kts | 304° |
| 2026-04-24 11:33 | 15.53049 | 69.10590 | 35757 ft | 490 kts | 304° |
| 2026-04-24 11:33 | 15.56792 | 69.04717 | 35748 ft | 488 kts | 304° |
| 2026-04-24 11:34 | 15.60506 | 68.98890 | 35744 ft | 486 kts | 304° |
| 2026-04-24 11:34 | 15.64197 | 68.93095 | 35743 ft | 483 kts | 304° |
| 2026-04-24 11:35 | 15.67902 | 68.87278 | 35743 ft | 480 kts | 305° |
| 2026-04-24 11:35 | 15.71581 | 68.81496 | 35743 ft | 479 kts | 305° |
| 2026-04-24 11:36 | 15.75233 | 68.75752 | 35742 ft | 479 kts | 305° |
| 2026-04-24 11:36 | 15.78900 | 68.69978 | 35742 ft | 479 kts | 305° |
| 2026-04-24 11:37 | 15.82577 | 68.64183 | 35742 ft | 479 kts | 305° |
| 2026-04-24 11:37 | 15.86233 | 68.58417 | 35742 ft | 479 kts | 305° |
| 2026-04-24 11:38 | 15.89884 | 68.52655 | 35742 ft | 479 kts | 305° |
| 2026-04-24 11:38 | 15.93567 | 68.46837 | 35742 ft | 479 kts | 305° |
| 2026-04-24 11:39 | 15.97212 | 68.41074 | 35742 ft | 479 kts | 305° |
| 2026-04-24 11:39 | 16.00884 | 68.35265 | 35742 ft | 479 kts | 305° |
| 2026-04-24 11:40 | 16.04528 | 68.29495 | 35742 ft | 479 kts | 304° |
| 2026-04-24 11:40 | 16.08170 | 68.23724 | 35742 ft | 479 kts | 304° |
| 2026-04-24 11:41 | 16.11827 | 68.17926 | 35743 ft | 479 kts | 304° |
| 2026-04-24 11:41 | 16.15487 | 68.12115 | 35740 ft | 479 kts | 304° |
| 2026-04-24 11:42 | 16.19145 | 68.06303 | 35728 ft | 479 kts | 304° |
| 2026-04-24 11:42 | 16.22792 | 68.00504 | 35720 ft | 479 kts | 304° |
| 2026-04-24 11:43 | 16.26452 | 67.94679 | 35717 ft | 479 kts | 304° |
| 2026-04-24 11:43 | 16.30109 | 67.88905 | 35716 ft | 479 kts | 305° |
| 2026-04-24 11:44 | 16.33803 | 67.83096 | 35716 ft | 479 kts | 305° |
| 2026-04-24 11:44 | 16.37474 | 67.77310 | 35716 ft | 479 kts | 305° |
| 2026-04-24 11:45 | 16.41130 | 67.71542 | 35716 ft | 479 kts | 305° |
| 2026-04-24 11:45 | 16.44789 | 67.65762 | 35716 ft | 479 kts | 305° |
| 2026-04-24 11:46 | 16.48479 | 67.59927 | 35716 ft | 479 kts | 305° |
| 2026-04-24 11:46 | 16.52121 | 67.54164 | 35716 ft | 479 kts | 305° |
| 2026-04-24 11:47 | 16.55789 | 67.48354 | 35716 ft | 479 kts | 305° |
| 2026-04-24 11:47 | 16.59432 | 67.42580 | 35716 ft | 479 kts | 305° |
| 2026-04-24 11:48 | 16.63106 | 67.36752 | 35716 ft | 479 kts | 305° |
| 2026-04-24 11:48 | 16.66777 | 67.30924 | 35715 ft | 479 kts | 304° |
| 2026-04-24 11:49 | 16.70433 | 67.25114 | 35716 ft | 479 kts | 304° |
| 2026-04-24 11:49 | 16.74104 | 67.19277 | 35716 ft | 479 kts | 304° |
| 2026-04-24 11:50 | 16.77755 | 67.13470 | 35716 ft | 480 kts | 304° |
| 2026-04-24 11:50 | 16.81412 | 67.07649 | 35716 ft | 480 kts | 304° |
| 2026-04-24 11:51 | 16.85068 | 67.01820 | 35716 ft | 479 kts | 303° |
| 2026-04-24 11:51 | 16.88712 | 66.96005 | 35716 ft | 479 kts | 303° |
| 2026-04-24 11:52 | 16.92338 | 66.90213 | 35716 ft | 478 kts | 303° |
| 2026-04-24 11:52 | 16.95984 | 66.84383 | 35716 ft | 478 kts | 303° |
| 2026-04-24 11:53 | 16.99602 | 66.78594 | 35716 ft | 479 kts | 303° |
| 2026-04-24 11:53 | 17.03257 | 66.72745 | 35716 ft | 479 kts | 303° |
| 2026-04-24 11:54 | 17.06890 | 66.66924 | 35716 ft | 479 kts | 303° |
| 2026-04-24 11:54 | 17.10530 | 66.61087 | 35715 ft | 479 kts | 303° |
| 2026-04-24 11:55 | 17.14166 | 66.55250 | 35716 ft | 479 kts | 303° |
| 2026-04-24 11:55 | 17.17789 | 66.49429 | 35716 ft | 479 kts | 303° |
| 2026-04-24 11:56 | 17.21427 | 66.43579 | 35716 ft | 479 kts | 303° |
| 2026-04-24 11:56 | 17.25076 | 66.37705 | 35716 ft | 479 kts | 303° |
| 2026-04-24 11:57 | 17.28695 | 66.31877 | 35715 ft | 479 kts | 302° |
| 2026-04-24 11:57 | 17.32310 | 66.26050 | 35716 ft | 479 kts | 302° |
| 2026-04-24 11:58 | 17.35929 | 66.20211 | 35716 ft | 479 kts | 302° |
| 2026-04-24 11:58 | 17.39551 | 66.14362 | 35716 ft | 479 kts | 302° |
| 2026-04-24 11:59 | 17.43172 | 66.08509 | 35716 ft | 479 kts | 302° |
| 2026-04-24 11:59 | 17.46775 | 66.02682 | 35716 ft | 479 kts | 302° |
| 2026-04-24 12:00 | 17.50409 | 65.96798 | 35716 ft | 479 kts | 302° |
| 2026-04-24 12:00 | 17.54023 | 65.90941 | 35716 ft | 479 kts | 302° |
| 2026-04-24 12:01 | 17.57623 | 65.85101 | 35716 ft | 479 kts | 302° |
| 2026-04-24 12:01 | 17.61252 | 65.79206 | 35716 ft | 479 kts | 302° |
| 2026-04-24 12:02 | 17.64908 | 65.73441 | 35716 ft | 479 kts | 304° |
| 2026-04-24 12:02 | 17.68670 | 65.67629 | 35718 ft | 479 kts | 304° |
| 2026-04-24 12:03 | 17.72398 | 65.61851 | 35726 ft | 479 kts | 304° |
| 2026-04-24 12:03 | 17.76126 | 65.56053 | 35744 ft | 479 kts | 303° |
| 2026-04-24 12:04 | 17.79843 | 65.50264 | 35767 ft | 479 kts | 303° |
| 2026-04-24 12:04 | 17.83560 | 65.44467 | 35784 ft | 478 kts | 303° |
| 2026-04-24 12:05 | 17.87228 | 65.38741 | 35792 ft | 478 kts | 303° |
| 2026-04-24 12:05 | 17.90955 | 65.32918 | 35794 ft | 478 kts | 303° |
| 2026-04-24 12:06 | 17.94650 | 65.27141 | 35796 ft | 478 kts | 303° |
| 2026-04-24 12:06 | 17.98370 | 65.21320 | 35796 ft | 478 kts | 303° |
| 2026-04-24 12:07 | 18.02051 | 65.15555 | 35796 ft | 478 kts | 303° |
| 2026-04-24 12:07 | 18.05758 | 65.09742 | 35796 ft | 478 kts | 303° |
| 2026-04-24 12:08 | 18.09465 | 65.03925 | 35796 ft | 478 kts | 303° |
| 2026-04-24 12:08 | 18.13152 | 64.98131 | 35795 ft | 479 kts | 303° |
| 2026-04-24 12:09 | 18.16862 | 64.92297 | 35796 ft | 479 kts | 304° |
| 2026-04-24 12:09 | 18.20545 | 64.86501 | 35796 ft | 479 kts | 304° |
| 2026-04-24 12:10 | 18.24230 | 64.80697 | 35796 ft | 479 kts | 304° |
| 2026-04-24 12:11 | 18.29771 | 64.71966 | 35796 ft | 478 kts | 304° |
| 2026-04-24 12:11 | 18.33463 | 64.66141 | 35796 ft | 478 kts | 304° |
| 2026-04-24 12:12 | 18.37140 | 64.60331 | 35796 ft | 478 kts | 304° |
| 2026-04-24 12:12 | 18.40810 | 64.54530 | 35796 ft | 478 kts | 304° |
| 2026-04-24 12:13 | 18.44496 | 64.48695 | 35796 ft | 478 kts | 304° |
| 2026-04-24 12:13 | 18.48160 | 64.42891 | 35796 ft | 478 kts | 304° |
| 2026-04-24 12:14 | 18.51839 | 64.37058 | 35796 ft | 478 kts | 304° |
| 2026-04-24 12:14 | 18.55527 | 64.31204 | 35795 ft | 478 kts | 304° |
| 2026-04-24 12:15 | 18.59192 | 64.25383 | 35795 ft | 478 kts | 304° |
| 2026-04-24 12:15 | 18.62867 | 64.19538 | 35796 ft | 478 kts | 304° |
| 2026-04-24 12:16 | 18.66521 | 64.13724 | 35796 ft | 478 kts | 304° |
| 2026-04-24 12:16 | 18.70175 | 64.07903 | 35796 ft | 478 kts | 304° |
| 2026-04-24 12:17 | 18.73836 | 64.02067 | 35796 ft | 478 kts | 304° |
| 2026-04-24 12:17 | 18.77500 | 63.96218 | 35796 ft | 478 kts | 304° |
| 2026-04-24 12:18 | 18.81157 | 63.90376 | 35796 ft | 478 kts | 304° |
| 2026-04-24 12:18 | 18.84835 | 63.84495 | 35796 ft | 478 kts | 304° |
| 2026-04-24 12:19 | 18.88476 | 63.78668 | 35795 ft | 478 kts | 304° |
| 2026-04-24 12:19 | 18.92159 | 63.72773 | 35796 ft | 478 kts | 303° |
| 2026-04-24 12:20 | 18.95795 | 63.66942 | 35796 ft | 475 kts | 303° |
| 2026-04-24 12:20 | 18.99388 | 63.61167 | 35796 ft | 472 kts | 303° |
| 2026-04-24 12:21 | 19.02972 | 63.55412 | 35797 ft | 469 kts | 303° |
| 2026-04-24 12:21 | 19.06560 | 63.49651 | 35801 ft | 468 kts | 303° |
| 2026-04-24 12:22 | 19.10111 | 63.43945 | 35806 ft | 468 kts | 303° |
| 2026-04-24 12:22 | 19.13683 | 63.38197 | 35813 ft | 468 kts | 303° |
| 2026-04-24 12:23 | 19.17251 | 63.32448 | 35819 ft | 468 kts | 303° |
| 2026-04-24 12:23 | 19.20804 | 63.26719 | 35823 ft | 468 kts | 303° |
| 2026-04-24 12:24 | 19.24367 | 63.20966 | 35824 ft | 468 kts | 303° |
| 2026-04-24 12:24 | 19.27932 | 63.15206 | 35824 ft | 468 kts | 303° |
| 2026-04-24 12:25 | 19.31484 | 63.09460 | 35824 ft | 468 kts | 303° |
| 2026-04-24 12:25 | 19.35033 | 63.03718 | 35824 ft | 468 kts | 303° |
| 2026-04-24 12:26 | 19.38589 | 62.97956 | 35824 ft | 468 kts | 302° |
| 2026-04-24 12:26 | 19.42158 | 62.92168 | 35824 ft | 468 kts | 302° |
| 2026-04-24 12:27 | 19.45717 | 62.86389 | 35824 ft | 468 kts | 302° |
| 2026-04-24 12:27 | 19.49273 | 62.80608 | 35854 ft | 470 kts | 302° |
| 2026-04-24 12:28 | 19.52830 | 62.74822 | 35853 ft | 469 kts | 302° |
| 2026-04-24 12:28 | 19.56375 | 62.69049 | 35829 ft | 469 kts | 302° |
| 2026-04-24 12:29 | 19.59920 | 62.63274 | 35825 ft | 469 kts | 302° |
| 2026-04-24 12:29 | 19.63477 | 62.57471 | 35824 ft | 469 kts | 302° |
| 2026-04-24 12:30 | 19.67010 | 62.51702 | 35824 ft | 469 kts | 302° |
| 2026-04-24 12:30 | 19.70566 | 62.45888 | 35957 ft | 471 kts | 302° |
| 2026-04-24 12:30 | 19.72348 | 62.42974 | 36261 ft | 469 kts | 302° |
| 2026-04-24 12:31 | 19.74092 | 62.40120 | 36571 ft | 467 kts | 302° |
| 2026-04-24 12:31 | 19.75859 | 62.37228 | 36828 ft | 467 kts | 302° |
| 2026-04-24 12:31 | 19.77616 | 62.34350 | 37046 ft | 467 kts | 302° |
| 2026-04-24 12:31 | 19.79387 | 62.31448 | 37252 ft | 467 kts | 302° |
| 2026-04-24 12:32 | 19.81148 | 62.28560 | 37456 ft | 467 kts | 302° |
| 2026-04-24 12:32 | 19.82899 | 62.25687 | 37659 ft | 467 kts | 302° |
| 2026-04-24 12:32 | 19.84677 | 62.22769 | 37792 ft | 468 kts | 302° |
| 2026-04-24 12:33 | 19.88198 | 62.16987 | 37799 ft | 468 kts | 302° |
| 2026-04-24 12:33 | 19.91713 | 62.11209 | 37798 ft | 468 kts | 302° |
| 2026-04-24 12:34 | 19.95221 | 62.05437 | 37798 ft | 468 kts | 302° |
| 2026-04-24 12:34 | 19.98751 | 61.99621 | 37798 ft | 468 kts | 302° |
| 2026-04-24 12:35 | 20.02255 | 61.93845 | 37798 ft | 468 kts | 302° |
| 2026-04-24 12:35 | 20.05783 | 61.88021 | 37798 ft | 468 kts | 302° |
| 2026-04-24 12:36 | 20.09292 | 61.82224 | 37798 ft | 468 kts | 302° |
| 2026-04-24 12:36 | 20.12805 | 61.76414 | 37798 ft | 468 kts | 302° |
| 2026-04-24 12:37 | 20.16309 | 61.70612 | 37798 ft | 468 kts | 302° |
| 2026-04-24 12:37 | 20.19833 | 61.64775 | 37798 ft | 468 kts | 302° |
| 2026-04-24 12:38 | 20.23337 | 61.58963 | 37798 ft | 468 kts | 302° |
| 2026-04-24 12:38 | 20.26827 | 61.53168 | 37798 ft | 468 kts | 302° |
| 2026-04-24 12:39 | 20.33838 | 61.41510 | 37798 ft | 468 kts | 302° |
| 2026-04-24 12:40 | 20.37327 | 61.35699 | 37798 ft | 468 kts | 302° |
| 2026-04-24 12:40 | 20.40840 | 61.29842 | 37798 ft | 468 kts | 302° |
| 2026-04-24 12:41 | 20.44316 | 61.24040 | 37798 ft | 468 kts | 302° |
| 2026-04-24 12:41 | 20.47825 | 61.18177 | 37798 ft | 468 kts | 302° |
| 2026-04-24 12:42 | 20.51294 | 61.12374 | 37798 ft | 467 kts | 302° |
| 2026-04-24 12:42 | 20.54777 | 61.06541 | 37798 ft | 467 kts | 302° |
| 2026-04-24 12:43 | 20.58264 | 61.00674 | 37798 ft | 466 kts | 301° |
| 2026-04-24 12:43 | 20.61331 | 60.94638 | 37798 ft | 465 kts | 295° |
| 2026-04-24 12:44 | 20.63773 | 60.88261 | 37798 ft | 465 kts | 288° |
| 2026-04-24 12:44 | 20.65817 | 60.81732 | 37798 ft | 465 kts | 288° |
| 2026-04-24 12:45 | 20.67843 | 60.75178 | 37798 ft | 464 kts | 288° |
| 2026-04-24 12:45 | 20.69864 | 60.68646 | 37798 ft | 465 kts | 288° |
| 2026-04-24 12:46 | 20.71917 | 60.62021 | 37798 ft | 465 kts | 288° |
| 2026-04-24 12:46 | 20.73922 | 60.55544 | 37798 ft | 465 kts | 288° |
| 2026-04-24 12:47 | 20.75952 | 60.48976 | 37798 ft | 465 kts | 288° |
| 2026-04-24 12:47 | 20.77979 | 60.42411 | 37798 ft | 465 kts | 288° |
| 2026-04-24 12:48 | 20.79999 | 60.35860 | 37798 ft | 465 kts | 288° |
| 2026-04-24 12:48 | 20.82019 | 60.29297 | 37798 ft | 465 kts | 287° |
| 2026-04-24 12:49 | 20.84034 | 60.22740 | 37798 ft | 465 kts | 287° |
| 2026-04-24 12:49 | 20.86053 | 60.16159 | 37798 ft | 465 kts | 288° |
| 2026-04-24 12:50 | 20.88051 | 60.09640 | 37798 ft | 465 kts | 287° |
| 2026-04-24 12:50 | 20.90065 | 60.03056 | 37798 ft | 465 kts | 287° |
| 2026-04-24 12:51 | 20.92070 | 59.96490 | 37798 ft | 465 kts | 288° |
| 2026-04-24 12:51 | 20.94075 | 59.89916 | 37798 ft | 465 kts | 287° |
| 2026-04-24 12:52 | 20.96076 | 59.83343 | 37798 ft | 465 kts | 287° |
| 2026-04-24 12:52 | 20.98066 | 59.76793 | 37798 ft | 464 kts | 287° |
| 2026-04-24 12:53 | 21.00069 | 59.70198 | 37798 ft | 463 kts | 287° |
| 2026-04-24 12:53 | 21.02012 | 59.63670 | 37798 ft | 462 kts | 287° |
| 2026-04-24 12:54 | 21.03920 | 59.57162 | 37798 ft | 460 kts | 287° |
| 2026-04-24 12:54 | 21.05834 | 59.50622 | 37798 ft | 459 kts | 287° |
| 2026-04-24 12:55 | 21.07728 | 59.44147 | 37798 ft | 457 kts | 286° |
| 2026-04-24 12:55 | 21.09626 | 59.37650 | 37798 ft | 456 kts | 286° |
| 2026-04-24 12:56 | 21.11510 | 59.31192 | 37798 ft | 454 kts | 286° |
| 2026-04-24 12:56 | 21.13382 | 59.24768 | 37798 ft | 453 kts | 286° |
| 2026-04-24 12:57 | 21.15262 | 59.18306 | 37797 ft | 453 kts | 286° |
| 2026-04-24 12:57 | 21.17132 | 59.11867 | 37798 ft | 453 kts | 286° |
| 2026-04-24 12:58 | 21.18998 | 59.05434 | 37798 ft | 453 kts | 286° |
| 2026-04-24 12:58 | 21.20858 | 58.99010 | 37798 ft | 453 kts | 286° |
| 2026-04-24 12:59 | 21.22727 | 58.92546 | 37798 ft | 453 kts | 286° |
| 2026-04-24 12:59 | 21.24589 | 58.86087 | 37798 ft | 454 kts | 286° |
| 2026-04-24 13:00 | 21.26454 | 58.79615 | 37798 ft | 454 kts | 286° |
| 2026-04-24 13:00 | 21.28303 | 58.73196 | 37798 ft | 454 kts | 286° |
| 2026-04-24 13:01 | 21.30165 | 58.66722 | 37798 ft | 454 kts | 286° |
| 2026-04-24 13:01 | 21.32029 | 58.60223 | 37798 ft | 454 kts | 286° |
| 2026-04-24 13:02 | 21.33874 | 58.53776 | 37798 ft | 454 kts | 286° |
| 2026-04-24 13:02 | 21.35732 | 58.47273 | 37798 ft | 454 kts | 286° |
| 2026-04-24 13:03 | 21.37579 | 58.40804 | 37798 ft | 454 kts | 286° |
| 2026-04-24 13:03 | 21.39414 | 58.34362 | 37798 ft | 454 kts | 285° |
| 2026-04-24 13:04 | 21.41258 | 58.27879 | 37798 ft | 454 kts | 285° |
| 2026-04-24 13:04 | 21.43094 | 58.21411 | 37798 ft | 454 kts | 285° |
| 2026-04-24 13:05 | 21.44936 | 58.14912 | 37798 ft | 454 kts | 285° |
| 2026-04-24 13:05 | 21.46772 | 58.08425 | 37798 ft | 454 kts | 285° |
| 2026-04-24 13:06 | 21.48603 | 58.01947 | 37806 ft | 454 kts | 285° |
| 2026-04-24 13:06 | 21.50438 | 57.95443 | 37829 ft | 454 kts | 285° |
| 2026-04-24 13:07 | 21.52256 | 57.88985 | 37842 ft | 454 kts | 285° |
| 2026-04-24 13:07 | 21.54083 | 57.82488 | 37848 ft | 454 kts | 285° |
| 2026-04-24 13:08 | 21.55901 | 57.76004 | 37850 ft | 454 kts | 285° |
| 2026-04-24 13:08 | 21.57722 | 57.69503 | 37851 ft | 454 kts | 285° |
| 2026-04-24 13:09 | 21.60441 | 57.59784 | 37851 ft | 454 kts | 285° |
| 2026-04-24 13:09 | 21.62122 | 57.53759 | 37851 ft | 454 kts | 285° |
| 2026-04-24 13:10 | 21.63923 | 57.47287 | 37851 ft | 454 kts | 285° |
| 2026-04-24 13:10 | 21.65726 | 57.40794 | 37851 ft | 454 kts | 285° |
| 2026-04-24 13:11 | 21.67536 | 57.34264 | 37851 ft | 454 kts | 285° |
| 2026-04-24 13:11 | 21.69327 | 57.27794 | 37851 ft | 454 kts | 285° |
| 2026-04-24 13:12 | 21.71126 | 57.21278 | 37851 ft | 454 kts | 285° |
| 2026-04-24 13:12 | 21.72921 | 57.14773 | 37851 ft | 454 kts | 285° |
| 2026-04-24 13:13 | 21.74721 | 57.08244 | 37851 ft | 454 kts | 285° |
| 2026-04-24 13:13 | 21.76506 | 57.01757 | 37851 ft | 454 kts | 285° |
| 2026-04-24 13:14 | 21.78297 | 56.95226 | 37851 ft | 455 kts | 284° |
| 2026-04-24 13:14 | 21.80086 | 56.88690 | 37851 ft | 456 kts | 284° |
| 2026-04-24 13:15 | 21.81862 | 56.82180 | 37851 ft | 456 kts | 284° |
| 2026-04-24 13:15 | 21.83651 | 56.75612 | 37851 ft | 456 kts | 284° |
| 2026-04-24 13:16 | 21.85421 | 56.69114 | 37851 ft | 456 kts | 284° |
| 2026-04-24 13:16 | 21.87200 | 56.62587 | 37851 ft | 456 kts | 284° |
| 2026-04-24 13:17 | 21.88985 | 56.56017 | 37851 ft | 456 kts | 284° |
| 2026-04-24 13:17 | 21.90760 | 56.49468 | 37851 ft | 456 kts | 284° |
| 2026-04-24 13:18 | 21.92528 | 56.42926 | 37851 ft | 456 kts | 284° |
| 2026-04-24 13:18 | 21.94297 | 56.36374 | 37850 ft | 456 kts | 284° |
| 2026-04-24 13:19 | 21.96057 | 56.29850 | 37851 ft | 456 kts | 284° |
| 2026-04-24 13:19 | 21.97816 | 56.23310 | 37851 ft | 456 kts | 284° |
| 2026-04-24 13:20 | 21.99571 | 56.16760 | 37851 ft | 456 kts | 284° |
| 2026-04-24 13:20 | 22.01327 | 56.10194 | 37851 ft | 456 kts | 284° |
| 2026-04-24 13:21 | 22.03073 | 56.03671 | 37851 ft | 456 kts | 284° |
| 2026-04-24 13:21 | 22.04840 | 55.97096 | 37851 ft | 456 kts | 284° |
| 2026-04-24 13:22 | 22.06592 | 55.90557 | 37851 ft | 456 kts | 284° |
| 2026-04-24 13:22 | 22.08344 | 55.84005 | 37851 ft | 456 kts | 284° |
| 2026-04-24 13:23 | 22.10084 | 55.77475 | 37850 ft | 456 kts | 284° |
| 2026-04-24 13:23 | 22.11836 | 55.70888 | 37851 ft | 456 kts | 284° |
| 2026-04-24 13:24 | 22.13570 | 55.64360 | 37851 ft | 456 kts | 284° |
| 2026-04-24 13:24 | 22.15165 | 55.57722 | 37851 ft | 455 kts | 280° |
| 2026-04-24 13:25 | 22.16130 | 55.51013 | 37851 ft | 453 kts | 274° |
| 2026-04-24 13:25 | 22.16694 | 55.44269 | 37851 ft | 453 kts | 273° |
| 2026-04-24 13:26 | 22.17236 | 55.37510 | 37851 ft | 453 kts | 273° |
| 2026-04-24 13:26 | 22.17780 | 55.30744 | 37852 ft | 453 kts | 273° |
| 2026-04-24 13:27 | 22.18323 | 55.23994 | 37851 ft | 453 kts | 273° |
| 2026-04-24 13:27 | 22.18863 | 55.17249 | 37851 ft | 453 kts | 273° |
| 2026-04-24 13:28 | 22.19401 | 55.10476 | 37851 ft | 452 kts | 273° |
| 2026-04-24 13:28 | 22.19938 | 55.03730 | 37851 ft | 451 kts | 274° |
| 2026-04-24 13:29 | 22.20478 | 54.97013 | 37851 ft | 450 kts | 274° |
| 2026-04-24 13:29 | 22.21014 | 54.90312 | 37851 ft | 449 kts | 274° |
| 2026-04-24 13:30 | 22.21550 | 54.83555 | 37848 ft | 449 kts | 274° |
| 2026-04-24 13:30 | 22.22079 | 54.76844 | 37844 ft | 449 kts | 274° |
| 2026-04-24 13:31 | 22.22603 | 54.70152 | 37837 ft | 449 kts | 274° |
| 2026-04-24 13:31 | 22.23129 | 54.63387 | 37832 ft | 449 kts | 274° |
| 2026-04-24 13:32 | 22.23652 | 54.56638 | 37829 ft | 449 kts | 274° |
| 2026-04-24 13:32 | 22.24166 | 54.49957 | 37827 ft | 449 kts | 274° |
| 2026-04-24 13:33 | 22.24679 | 54.43253 | 37826 ft | 449 kts | 274° |
| 2026-04-24 13:33 | 22.25193 | 54.36507 | 37826 ft | 449 kts | 274° |
| 2026-04-24 13:34 | 22.25690 | 54.29936 | 37827 ft | 449 kts | 273° |
| 2026-04-24 13:34 | 22.26189 | 54.23314 | 37826 ft | 449 kts | 273° |
| 2026-04-24 13:35 | 22.26692 | 54.16589 | 37826 ft | 449 kts | 273° |
| 2026-04-24 13:35 | 22.27192 | 54.09884 | 37826 ft | 449 kts | 273° |
| 2026-04-24 13:36 | 22.27688 | 54.03178 | 37826 ft | 449 kts | 273° |
| 2026-04-24 13:36 | 22.28183 | 53.96454 | 37826 ft | 449 kts | 273° |
| 2026-04-24 13:37 | 22.28672 | 53.89768 | 37825 ft | 449 kts | 273° |
| 2026-04-24 13:37 | 22.29163 | 53.83027 | 37825 ft | 449 kts | 273° |
| 2026-04-24 13:38 | 22.29649 | 53.76297 | 37825 ft | 449 kts | 273° |
| 2026-04-24 13:38 | 22.30128 | 53.69619 | 37825 ft | 449 kts | 273° |
| 2026-04-24 13:39 | 22.30609 | 53.62887 | 37825 ft | 449 kts | 273° |
| 2026-04-24 13:39 | 22.31090 | 53.56152 | 37825 ft | 449 kts | 273° |
| 2026-04-24 13:40 | 22.31567 | 53.49439 | 37825 ft | 449 kts | 273° |
| 2026-04-24 13:40 | 22.32041 | 53.42698 | 37826 ft | 449 kts | 273° |
| 2026-04-24 13:41 | 22.32510 | 53.35977 | 37826 ft | 449 kts | 273° |
| 2026-04-24 13:41 | 22.32975 | 53.29254 | 37827 ft | 449 kts | 273° |
| 2026-04-24 13:42 | 22.33438 | 53.22533 | 37826 ft | 449 kts | 273° |
| 2026-04-24 13:42 | 22.33898 | 53.15819 | 37826 ft | 449 kts | 273° |
| 2026-04-24 13:43 | 22.34355 | 53.09095 | 37826 ft | 449 kts | 273° |
| 2026-04-24 13:43 | 22.34810 | 53.02365 | 37826 ft | 449 kts | 273° |
| 2026-04-24 13:44 | 22.35261 | 52.95667 | 37826 ft | 449 kts | 272° |
| 2026-04-24 13:44 | 22.35712 | 52.88931 | 37826 ft | 449 kts | 272° |
| 2026-04-24 13:45 | 22.36156 | 52.82242 | 37826 ft | 449 kts | 272° |
| 2026-04-24 13:45 | 22.36600 | 52.75497 | 37826 ft | 449 kts | 272° |
| 2026-04-24 13:46 | 22.37037 | 52.68801 | 37826 ft | 449 kts | 272° |
| 2026-04-24 13:46 | 22.37474 | 52.62080 | 37826 ft | 449 kts | 272° |
| 2026-04-24 13:47 | 22.37911 | 52.55324 | 37826 ft | 449 kts | 272° |
| 2026-04-24 13:47 | 22.38343 | 52.48588 | 37828 ft | 449 kts | 272° |
| 2026-04-24 13:48 | 22.38771 | 52.41884 | 37834 ft | 449 kts | 272° |
| 2026-04-24 13:48 | 22.39199 | 52.35120 | 37843 ft | 449 kts | 272° |
| 2026-04-24 13:49 | 22.39622 | 52.28390 | 37854 ft | 449 kts | 272° |
| 2026-04-24 13:49 | 22.40042 | 52.21653 | 37860 ft | 449 kts | 272° |
| 2026-04-24 13:50 | 22.40458 | 52.14931 | 37864 ft | 449 kts | 272° |
| 2026-04-24 13:50 | 22.40873 | 52.08245 | 37865 ft | 449 kts | 272° |
| 2026-04-24 13:51 | 22.41290 | 52.01482 | 37865 ft | 449 kts | 272° |
| 2026-04-24 13:51 | 22.41701 | 51.94765 | 37865 ft | 449 kts | 272° |
| 2026-04-24 13:52 | 22.42112 | 51.88051 | 37865 ft | 449 kts | 272° |
| 2026-04-24 13:52 | 22.42521 | 51.81284 | 37865 ft | 449 kts | 272° |
| 2026-04-24 13:53 | 22.42922 | 51.74569 | 37865 ft | 449 kts | 272° |
| 2026-04-24 13:53 | 22.43321 | 51.67836 | 37865 ft | 449 kts | 272° |
| 2026-04-24 13:54 | 22.43715 | 51.61144 | 37865 ft | 449 kts | 272° |
| 2026-04-24 13:54 | 22.44110 | 51.54394 | 37865 ft | 449 kts | 272° |
| 2026-04-24 13:55 | 22.44500 | 51.47673 | 37865 ft | 449 kts | 272° |
| 2026-04-24 13:55 | 22.44885 | 51.40971 | 37865 ft | 449 kts | 272° |
| 2026-04-24 13:56 | 22.45271 | 51.34227 | 37866 ft | 449 kts | 271° |
| 2026-04-24 13:56 | 22.45651 | 51.27507 | 37865 ft | 449 kts | 271° |
| 2026-04-24 13:57 | 22.46029 | 51.20775 | 37865 ft | 449 kts | 271° |
| 2026-04-24 13:57 | 22.46404 | 51.14051 | 37865 ft | 449 kts | 271° |
| 2026-04-24 13:58 | 22.46778 | 51.07335 | 37865 ft | 449 kts | 271° |
| 2026-04-24 13:58 | 22.47152 | 51.00623 | 37865 ft | 448 kts | 271° |
| 2026-04-24 13:59 | 22.47522 | 50.93920 | 37865 ft | 448 kts | 271° |
| 2026-04-24 13:59 | 22.47886 | 50.87236 | 37865 ft | 447 kts | 271° |
| 2026-04-24 14:00 | 22.48247 | 50.80540 | 37865 ft | 447 kts | 271° |
| 2026-04-24 14:00 | 22.48605 | 50.73833 | 37865 ft | 447 kts | 271° |
| 2026-04-24 14:01 | 22.48961 | 50.67142 | 37865 ft | 447 kts | 271° |
| 2026-04-24 14:01 | 22.49316 | 50.60399 | 37865 ft | 447 kts | 271° |
| 2026-04-24 14:02 | 22.49665 | 50.53721 | 37865 ft | 447 kts | 271° |
| 2026-04-24 14:02 | 22.50012 | 50.47009 | 37865 ft | 447 kts | 271° |
| 2026-04-24 14:03 | 22.50356 | 50.40322 | 37865 ft | 447 kts | 271° |
| 2026-04-24 14:03 | 22.50698 | 50.33614 | 37866 ft | 447 kts | 271° |
| 2026-04-24 14:04 | 22.51035 | 50.26945 | 37865 ft | 447 kts | 271° |
| 2026-04-24 14:04 | 22.51373 | 50.20209 | 37865 ft | 447 kts | 271° |
| 2026-04-24 14:05 | 22.51704 | 50.13551 | 37865 ft | 447 kts | 271° |
| 2026-04-24 14:05 | 22.52034 | 50.06854 | 37868 ft | 447 kts | 271° |
| 2026-04-24 14:06 | 22.52361 | 50.00158 | 37874 ft | 447 kts | 271° |
| 2026-04-24 14:06 | 22.52685 | 49.93450 | 37880 ft | 447 kts | 271° |
| 2026-04-24 14:07 | 22.53006 | 49.86750 | 37886 ft | 447 kts | 271° |
| 2026-04-24 14:07 | 22.53323 | 49.80057 | 37894 ft | 447 kts | 271° |
| 2026-04-24 14:08 | 22.53818 | 49.73390 | 37905 ft | 447 kts | 274° |
| 2026-04-24 14:08 | 22.54461 | 49.66702 | 37916 ft | 447 kts | 274° |
| 2026-04-24 14:09 | 22.55102 | 49.60025 | 37925 ft | 447 kts | 274° |
| 2026-04-24 14:09 | 22.55738 | 49.53339 | 37929 ft | 447 kts | 274° |
| 2026-04-24 14:10 | 22.56367 | 49.46679 | 37930 ft | 447 kts | 274° |
| 2026-04-24 14:10 | 22.56995 | 49.39992 | 37930 ft | 447 kts | 274° |
| 2026-04-24 14:11 | 22.57621 | 49.33293 | 37932 ft | 447 kts | 274° |
| 2026-04-24 14:12 | 22.58552 | 49.23283 | 37931 ft | 447 kts | 274° |
| 2026-04-24 14:12 | 22.59171 | 49.16582 | 37931 ft | 447 kts | 274° |
| 2026-04-24 14:13 | 22.59782 | 49.09939 | 37931 ft | 445 kts | 274° |
| 2026-04-24 14:13 | 22.60391 | 49.03283 | 37928 ft | 443 kts | 274° |
| 2026-04-24 14:14 | 22.60992 | 48.96673 | 37926 ft | 441 kts | 274° |
| 2026-04-24 14:14 | 22.61888 | 48.86800 | 37924 ft | 440 kts | 274° |
| 2026-04-24 14:15 | 22.62483 | 48.80214 | 37923 ft | 440 kts | 274° |
| 2026-04-24 14:15 | 22.63072 | 48.73640 | 37923 ft | 440 kts | 274° |
| 2026-04-24 14:16 | 22.63662 | 48.67032 | 38002 ft | 442 kts | 274° |
| 2026-04-24 14:16 | 22.63954 | 48.63747 | 38250 ft | 441 kts | 274° |
| 2026-04-24 14:17 | 22.64537 | 48.57176 | 38742 ft | 439 kts | 274° |
| 2026-04-24 14:17 | 22.64826 | 48.53910 | 38937 ft | 439 kts | 274° |
| 2026-04-24 14:17 | 22.65407 | 48.47299 | 39300 ft | 440 kts | 274° |
| 2026-04-24 14:18 | 22.65695 | 48.44017 | 39478 ft | 440 kts | 274° |
| 2026-04-24 14:18 | 22.65981 | 48.40745 | 39651 ft | 440 kts | 274° |
| 2026-04-24 14:18 | 22.66267 | 48.37472 | 39820 ft | 440 kts | 274° |
| 2026-04-24 14:18 | 22.66556 | 48.34150 | 39915 ft | 440 kts | 274° |
| 2026-04-24 14:19 | 22.67124 | 48.27599 | 39921 ft | 440 kts | 274° |
| 2026-04-24 14:19 | 22.67694 | 48.20993 | 39923 ft | 440 kts | 274° |
| 2026-04-24 14:20 | 22.68260 | 48.14383 | 39923 ft | 440 kts | 274° |
| 2026-04-24 14:20 | 22.68820 | 48.07806 | 39923 ft | 440 kts | 274° |
| 2026-04-24 14:21 | 22.69379 | 48.01247 | 39923 ft | 440 kts | 274° |
| 2026-04-24 14:21 | 22.69939 | 47.94652 | 39923 ft | 440 kts | 274° |
| 2026-04-24 14:22 | 22.70495 | 47.88040 | 39923 ft | 440 kts | 274° |
| 2026-04-24 14:23 | 22.71319 | 47.78155 | 39923 ft | 440 kts | 274° |
| 2026-04-24 14:23 | 22.71864 | 47.71571 | 39923 ft | 440 kts | 274° |
| 2026-04-24 14:24 | 22.72405 | 47.64999 | 39923 ft | 440 kts | 274° |
| 2026-04-24 14:24 | 22.72944 | 47.58417 | 39923 ft | 440 kts | 274° |
| 2026-04-24 14:25 | 22.73393 | 47.52906 | 39923 ft | 440 kts | 274° |
| 2026-04-24 14:25 | 22.74013 | 47.45263 | 39923 ft | 440 kts | 274° |
| 2026-04-24 14:26 | 22.74543 | 47.38682 | 39923 ft | 440 kts | 274° |
| 2026-04-24 14:26 | 22.75071 | 47.32082 | 39924 ft | 440 kts | 273° |
| 2026-04-24 14:27 | 22.75595 | 47.25495 | 39923 ft | 440 kts | 273° |
| 2026-04-24 14:27 | 22.76119 | 47.18888 | 39923 ft | 440 kts | 273° |
| 2026-04-24 14:28 | 22.76643 | 47.12330 | 39923 ft | 440 kts | 274° |
| 2026-04-24 14:28 | 22.77170 | 47.05745 | 39923 ft | 440 kts | 274° |
| 2026-04-24 14:29 | 22.77691 | 46.99161 | 39923 ft | 440 kts | 274° |
| 2026-04-24 14:29 | 22.78208 | 46.92565 | 39923 ft | 439 kts | 274° |
| 2026-04-24 14:30 | 22.78634 | 46.87096 | 39923 ft | 438 kts | 274° |
| 2026-04-24 14:30 | 22.79231 | 46.79411 | 39923 ft | 438 kts | 274° |
| 2026-04-24 14:31 | 22.79736 | 46.72899 | 39923 ft | 437 kts | 274° |
| 2026-04-24 14:31 | 22.80242 | 46.66332 | 39923 ft | 437 kts | 274° |
| 2026-04-24 14:32 | 22.80744 | 46.59761 | 39923 ft | 437 kts | 274° |
| 2026-04-24 14:32 | 22.81240 | 46.53227 | 39923 ft | 437 kts | 274° |
| 2026-04-24 14:33 | 22.81734 | 46.46656 | 39923 ft | 437 kts | 274° |
| 2026-04-24 14:33 | 22.82225 | 46.40113 | 39923 ft | 437 kts | 274° |
| 2026-04-24 14:34 | 22.82718 | 46.33551 | 39924 ft | 437 kts | 274° |
| 2026-04-24 14:34 | 22.83207 | 46.26992 | 39923 ft | 437 kts | 274° |
| 2026-04-24 14:35 | 22.83688 | 46.20474 | 39923 ft | 437 kts | 274° |
| 2026-04-24 14:35 | 22.84169 | 46.13907 | 39923 ft | 437 kts | 274° |
| 2026-04-24 14:36 | 22.84646 | 46.07359 | 39923 ft | 437 kts | 274° |
| 2026-04-24 14:36 | 22.85121 | 46.00786 | 39923 ft | 437 kts | 274° |
| 2026-04-24 14:37 | 22.85592 | 45.94242 | 39923 ft | 437 kts | 274° |
| 2026-04-24 14:37 | 22.86061 | 45.87675 | 39923 ft | 437 kts | 274° |
| 2026-04-24 14:38 | 22.86529 | 45.81101 | 39923 ft | 437 kts | 274° |
| 2026-04-24 14:38 | 22.86991 | 45.74561 | 39918 ft | 437 kts | 274° |
| 2026-04-24 14:39 | 22.87453 | 45.67980 | 39908 ft | 437 kts | 274° |
| 2026-04-24 14:39 | 22.87911 | 45.61415 | 39898 ft | 437 kts | 274° |
| 2026-04-24 14:40 | 22.88369 | 45.54821 | 39888 ft | 437 kts | 274° |
| 2026-04-24 14:40 | 22.88820 | 45.48286 | 39883 ft | 437 kts | 274° |
| 2026-04-24 14:41 | 22.89270 | 45.41716 | 39881 ft | 437 kts | 274° |
| 2026-04-24 14:41 | 22.89718 | 45.35148 | 39880 ft | 436 kts | 274° |
| 2026-04-24 14:42 | 22.90085 | 45.29724 | 39882 ft | 436 kts | 273° |
| 2026-04-24 14:42 | 22.90597 | 45.22097 | 39881 ft | 436 kts | 273° |
| 2026-04-24 14:43 | 22.91032 | 45.15563 | 39881 ft | 435 kts | 273° |
| 2026-04-24 14:43 | 22.91468 | 45.08984 | 39881 ft | 435 kts | 273° |
| 2026-04-24 14:44 | 22.91900 | 45.02488 | 39881 ft | 434 kts | 273° |
| 2026-04-24 14:44 | 22.92330 | 44.95956 | 39881 ft | 433 kts | 274° |
| 2026-04-24 14:45 | 22.92752 | 44.89462 | 39881 ft | 432 kts | 274° |
| 2026-04-24 14:45 | 22.93170 | 44.82986 | 39880 ft | 431 kts | 274° |
| 2026-04-24 14:46 | 22.93584 | 44.76528 | 39880 ft | 430 kts | 274° |
| 2026-04-24 14:46 | 22.94195 | 44.70118 | 39880 ft | 430 kts | 278° |
| 2026-04-24 14:47 | 22.95153 | 44.64787 | 39880 ft | 430 kts | 282° |
| 2026-04-24 14:47 | 22.97126 | 44.57568 | 39881 ft | 429 kts | 287° |
| 2026-04-24 14:48 | 22.99009 | 44.51465 | 39881 ft | 427 kts | 287° |
| 2026-04-24 14:48 | 23.00899 | 44.45343 | 39880 ft | 425 kts | 287° |
| 2026-04-24 14:49 | 23.02764 | 44.39286 | 39880 ft | 423 kts | 287° |
| 2026-04-24 14:49 | 23.04614 | 44.33269 | 39883 ft | 421 kts | 287° |
| 2026-04-24 14:50 | 23.06467 | 44.27232 | 39881 ft | 421 kts | 287° |
| 2026-04-24 14:50 | 23.08313 | 44.21208 | 39881 ft | 421 kts | 287° |
| 2026-04-24 14:51 | 23.10150 | 44.15205 | 39881 ft | 421 kts | 287° |
| 2026-04-24 14:51 | 23.11992 | 44.09174 | 39880 ft | 421 kts | 287° |
| 2026-04-24 14:52 | 23.13833 | 44.03137 | 39880 ft | 421 kts | 287° |
| 2026-04-24 14:52 | 23.15673 | 43.97097 | 39880 ft | 421 kts | 287° |
| 2026-04-24 14:53 | 23.17508 | 43.91061 | 39880 ft | 421 kts | 287° |
| 2026-04-24 14:53 | 23.19304 | 43.85145 | 39880 ft | 421 kts | 287° |
| 2026-04-24 14:54 | 23.21134 | 43.79107 | 39880 ft | 421 kts | 287° |
| 2026-04-24 14:54 | 23.22958 | 43.73080 | 39880 ft | 421 kts | 287° |
| 2026-04-24 14:55 | 23.24472 | 43.68064 | 39880 ft | 421 kts | 287° |
| 2026-04-24 14:55 | 23.26603 | 43.60994 | 39880 ft | 421 kts | 287° |
| 2026-04-24 14:56 | 23.28414 | 43.54987 | 39880 ft | 421 kts | 287° |
| 2026-04-24 14:56 | 23.30242 | 43.48928 | 39881 ft | 421 kts | 287° |
| 2026-04-24 14:57 | 23.32054 | 43.42899 | 39880 ft | 421 kts | 287° |
| 2026-04-24 14:57 | 23.33867 | 43.36854 | 39880 ft | 421 kts | 287° |
| 2026-04-24 14:58 | 23.35672 | 43.30823 | 39882 ft | 421 kts | 286° |
| 2026-04-24 14:58 | 23.37483 | 43.24760 | 39881 ft | 421 kts | 286° |
| 2026-04-24 14:59 | 23.39278 | 43.18727 | 39876 ft | 421 kts | 286° |
| 2026-04-24 14:59 | 23.41079 | 43.12680 | 39880 ft | 420 kts | 287° |
| 2026-04-24 15:00 | 23.42882 | 43.06620 | 39880 ft | 419 kts | 287° |
| 2026-04-24 15:00 | 23.44659 | 43.00627 | 39880 ft | 418 kts | 287° |
| 2026-04-24 15:01 | 23.46435 | 42.94625 | 39880 ft | 418 kts | 288° |
| 2026-04-24 15:01 | 23.48218 | 42.88600 | 39880 ft | 417 kts | 288° |
| 2026-04-24 15:02 | 23.49993 | 42.82582 | 39880 ft | 418 kts | 288° |
| 2026-04-24 15:02 | 23.51757 | 42.76590 | 39880 ft | 418 kts | 288° |
| 2026-04-24 15:03 | 23.53234 | 42.71584 | 39880 ft | 418 kts | 288° |
| 2026-04-24 15:03 | 23.55310 | 42.64547 | 39880 ft | 418 kts | 288° |
| 2026-04-24 15:04 | 23.57080 | 42.58532 | 39880 ft | 418 kts | 288° |
| 2026-04-24 15:04 | 23.58840 | 42.52533 | 39880 ft | 418 kts | 288° |
| 2026-04-24 15:05 | 23.60614 | 42.46472 | 39880 ft | 418 kts | 288° |
| 2026-04-24 15:05 | 23.62365 | 42.40482 | 39880 ft | 418 kts | 288° |
| 2026-04-24 15:06 | 23.64123 | 42.34453 | 39881 ft | 418 kts | 287° |
| 2026-04-24 15:06 | 23.65879 | 42.28427 | 39881 ft | 418 kts | 287° |
| 2026-04-24 15:07 | 23.67632 | 42.22401 | 39880 ft | 418 kts | 287° |
| 2026-04-24 15:07 | 23.69387 | 42.16347 | 39880 ft | 418 kts | 287° |
| 2026-04-24 15:08 | 23.71134 | 42.10305 | 39880 ft | 418 kts | 287° |
| 2026-04-24 15:08 | 23.72868 | 42.04292 | 39880 ft | 418 kts | 287° |
| 2026-04-24 15:09 | 23.74605 | 41.98264 | 39880 ft | 418 kts | 287° |
| 2026-04-24 15:09 | 23.76360 | 41.92205 | 39878 ft | 418 kts | 288° |
| 2026-04-24 15:10 | 23.78102 | 41.86171 | 39874 ft | 418 kts | 287° |
| 2026-04-24 15:10 | 23.79832 | 41.80163 | 39868 ft | 418 kts | 287° |
| 2026-04-24 15:11 | 23.81584 | 41.74078 | 39569 ft | 417 kts | 288° |
| 2026-04-24 15:11 | 23.82437 | 41.71111 | 39323 ft | 414 kts | 288° |
| 2026-04-24 15:11 | 23.83303 | 41.68092 | 39071 ft | 412 kts | 287° |
| 2026-04-24 15:11 | 23.84144 | 41.65154 | 38825 ft | 409 kts | 287° |
| 2026-04-24 15:12 | 23.84989 | 41.62203 | 38575 ft | 407 kts | 287° |
| 2026-04-24 15:12 | 23.86671 | 41.56317 | 38079 ft | 406 kts | 287° |
| 2026-04-24 15:12 | 23.87507 | 41.53389 | 37832 ft | 406 kts | 287° |
| 2026-04-24 15:13 | 23.88349 | 41.50431 | 37582 ft | 406 kts | 287° |
| 2026-04-24 15:13 | 23.89181 | 41.47500 | 37335 ft | 406 kts | 287° |
| 2026-04-24 15:13 | 23.90025 | 41.44522 | 37084 ft | 406 kts | 287° |
| 2026-04-24 15:13 | 23.90854 | 41.41596 | 36814 ft | 407 kts | 287° |
| 2026-04-24 15:14 | 23.91689 | 41.38644 | 36302 ft | 408 kts | 287° |
| 2026-04-24 15:14 | 23.92531 | 41.35669 | 35773 ft | 408 kts | 287° |
| 2026-04-24 15:14 | 23.93364 | 41.32740 | 35256 ft | 408 kts | 287° |
| 2026-04-24 15:14 | 23.94201 | 41.29797 | 34735 ft | 409 kts | 287° |
| 2026-04-24 15:15 | 23.95046 | 41.26825 | 34210 ft | 411 kts | 287° |
| 2026-04-24 15:15 | 23.95892 | 41.23843 | 33685 ft | 412 kts | 287° |
| 2026-04-24 15:15 | 23.96752 | 41.20818 | 33156 ft | 414 kts | 287° |
| 2026-04-24 15:15 | 23.97606 | 41.17807 | 32633 ft | 417 kts | 286° |
| 2026-04-24 15:16 | 23.98455 | 41.14806 | 32114 ft | 420 kts | 285° |
| 2026-04-24 15:16 | 23.99321 | 41.11736 | 31577 ft | 424 kts | 285° |
| 2026-04-24 15:16 | 24.00199 | 41.08620 | 31021 ft | 427 kts | 285° |
| 2026-04-24 15:16 | 24.01063 | 41.05544 | 30476 ft | 431 kts | 284° |
| 2026-04-24 15:17 | 24.01951 | 41.02381 | 29918 ft | 434 kts | 284° |
| 2026-04-24 15:17 | 24.02838 | 40.99218 | 29247 ft | 436 kts | 284° |
| 2026-04-24 15:17 | 24.03724 | 40.96060 | 28489 ft | 437 kts | 284° |
| 2026-04-24 15:17 | 24.04602 | 40.92941 | 27688 ft | 428 kts | 284° |
| 2026-04-24 15:18 | 24.05471 | 40.89856 | 27039 ft | 428 kts | 284° |
| 2026-04-24 15:18 | 24.06350 | 40.86720 | 26333 ft | 430 kts | 284° |
| 2026-04-24 15:18 | 24.07213 | 40.83638 | 25642 ft | 432 kts | 284° |
| 2026-04-24 15:18 | 24.08084 | 40.80526 | 24856 ft | 421 kts | 284° |
| 2026-04-24 15:19 | 24.08928 | 40.77513 | 24184 ft | 416 kts | 284° |
| 2026-04-24 15:19 | 24.09771 | 40.74495 | 23480 ft | 414 kts | 284° |
| 2026-04-24 15:19 | 24.10608 | 40.71491 | 22775 ft | 412 kts | 284° |
| 2026-04-24 15:19 | 24.11442 | 40.68495 | 22100 ft | 413 kts | 284° |
| 2026-04-24 15:20 | 24.12271 | 40.65508 | 21405 ft | 416 kts | 284° |
| 2026-04-24 15:20 | 24.13107 | 40.62497 | 20708 ft | 418 kts | 284° |
| 2026-04-24 15:20 | 24.13957 | 40.59441 | 19941 ft | 413 kts | 284° |
| 2026-04-24 15:20 | 24.14771 | 40.56519 | 19244 ft | 402 kts | 284° |
| 2026-04-24 15:21 | 24.15742 | 40.53594 | 18566 ft | 408 kts | 292° |
| 2026-04-24 15:21 | 24.17122 | 40.50910 | 17871 ft | 414 kts | 302° |
| 2026-04-24 15:21 | 24.18917 | 40.48479 | 17090 ft | 404 kts | 311° |
| 2026-04-24 15:21 | 24.20850 | 40.46349 | 16400 ft | 397 kts | 313° |
| 2026-04-24 15:22 | 24.22448 | 40.43984 | 15675 ft | 382 kts | 292° |
| 2026-04-24 15:22 | 24.23004 | 40.41222 | 15104 ft | 360 kts | 268° |
| 2026-04-24 15:22 | 24.22866 | 40.38588 | 14677 ft | 343 kts | 263° |
| 2026-04-24 15:23 | 24.22492 | 40.33543 | 13625 ft | 323 kts | 264° |
| 2026-04-24 15:23 | 24.22228 | 40.28733 | 12566 ft | 308 kts | 265° |
| 2026-04-24 15:23 | 24.22121 | 40.26407 | 12039 ft | 303 kts | 265° |
| 2026-04-24 15:24 | 24.21841 | 40.19572 | 10380 ft | 299 kts | 266° |
| 2026-04-24 15:25 | 24.21694 | 40.15832 | 9435 ft | 293 kts | 266° |
| 2026-04-24 15:25 | 24.21491 | 40.10706 | 8015 ft | 287 kts | 266° |
| 2026-04-24 15:26 | 24.21242 | 40.04402 | 6991 ft | 255 kts | 266° |
| 2026-04-24 15:27 | 24.21016 | 39.98772 | 6986 ft | 232 kts | 266° |
| 2026-04-24 15:27 | 24.20798 | 39.93431 | 6992 ft | 234 kts | 266° |
| 2026-04-24 15:28 | 24.20115 | 39.86377 | 6725 ft | 232 kts | 258° |
| 2026-04-24 15:29 | 24.19491 | 39.82914 | 6475 ft | 231 kts | 258° |
| 2026-04-24 15:30 | 24.20767 | 39.78216 | 6295 ft | 244 kts | 332° |
| 2026-04-24 15:31 | 24.26935 | 39.76851 | 6294 ft | 248 kts | 349° |
| 2026-04-24 15:32 | 24.34108 | 39.75369 | 5800 ft | 236 kts | 347° |
| 2026-04-24 15:33 | 24.40402 | 39.74007 | 4813 ft | 222 kts | 347° |
| 2026-04-24 15:33 | 24.44583 | 39.73114 | 3985 ft | 186 kts | 347° |
| 2026-04-24 15:34 | 24.46969 | 39.72605 | 3518 ft | 165 kts | 346° |
| 2026-04-24 15:35 | 24.50144 | 39.71926 | 2916 ft | 152 kts | 346° |
| 2026-04-24 15:35 | 24.52208 | 39.71482 | 2503 ft | 151 kts | 346° |
| 2026-04-24 15:35 | 24.53222 | 39.71267 | 2298 ft | 149 kts | 346° |
| 2026-04-24 15:36 | 24.54229 | 39.71056 | 2174 ft | 144 kts | 347° |
| 2026-04-24 15:36 | 24.55711 | 39.70739 | 2168 ft | 58 kts | 349° |
| 2026-04-24 15:36 | 24.55932 | 39.70685 | 2167 ft | 6 kts | 351° |
| 2026-04-24 15:37 | 24.55958 | 39.70681 | 2167 ft | 12 kts | 351° |
| 2026-04-24 15:37 | 24.56079 | 39.70673 | 2168 ft | 20 kts | 7° |
| 2026-04-24 15:37 | 24.56173 | 39.70701 | 2167 ft | 20 kts | 18° |
| 2026-04-24 15:37 | 24.56265 | 39.70761 | 2167 ft | 7 kts | 68° |
| 2026-04-24 15:38 | 24.56268 | 39.70771 | 2167 ft | 2 kts | 68° |
| 2026-04-24 15:38 | 24.56276 | 39.70791 | 2167 ft | 3 kts | 68° |
| 2026-04-24 15:38 | 24.56277 | 39.70795 | 2167 ft | 0 kts | 68° |
| 2026-04-24 15:40 | 24.56278 | 39.70796 | 2167 ft | 0 kts | 71° |
| 2026-04-24 15:40 | 24.56276 | 39.70802 | 2167 ft | 1 kts | 112° |
| 2026-04-24 15:41 | 24.56239 | 39.70819 | 2167 ft | 10 kts | 168° |
| 2026-04-24 15:41 | 24.56176 | 39.70832 | 2167 ft | 13 kts | 169° |
| 2026-04-24 15:41 | 24.56145 | 39.70838 | 2167 ft | 14 kts | 169° |
| 2026-04-24 15:41 | 24.56106 | 39.70847 | 2167 ft | 15 kts | 169° |
| 2026-04-24 15:42 | 24.56075 | 39.70853 | 2167 ft | 15 kts | 168° |
| 2026-04-24 15:42 | 24.55996 | 39.70886 | 2167 ft | 8 kts | 115° |
| 2026-04-24 15:42 | 24.56002 | 39.70957 | 2167 ft | 9 kts | 78° |
| 2026-04-24 15:42 | 24.56012 | 39.71032 | 2167 ft | 9 kts | 102° |
| 2026-04-24 15:43 | 24.55965 | 39.71070 | 2167 ft | 8 kts | 166° |
| 2026-04-24 15:43 | 24.55907 | 39.71085 | 2167 ft | 8 kts | 169° |
| 2026-04-24 15:43 | 24.55895 | 39.71088 | 2167 ft | 8 kts | 169° |
| 2026-04-24 15:43 | 24.55829 | 39.71102 | 2167 ft | 9 kts | 169° |
| 2026-04-24 15:44 | 24.55759 | 39.71116 | 2167 ft | 10 kts | 169° |
| 2026-04-24 15:44 | 24.55683 | 39.71133 | 2167 ft | 11 kts | 168° |
| 2026-04-24 15:44 | 24.55603 | 39.71151 | 2167 ft | 12 kts | 169° |
| 2026-04-24 15:44 | 24.55530 | 39.71170 | 2167 ft | 7 kts | 144° |
| 2026-04-24 15:45 | 24.55526 | 39.71198 | 2167 ft | 3 kts | 78° |
| 2026-04-24 15:45 | 24.55528 | 39.71210 | 2167 ft | 3 kts | 78° |
| 2026-04-24 15:46 | 24.55530 | 39.71221 | 2167 ft | 4 kts | 79° |
| 2026-04-24 15:46 | 24.55532 | 39.71232 | 2167 ft | 4 kts | 79° |
| 2026-04-24 15:46 | 24.55534 | 39.71243 | 2167 ft | 5 kts | 78° |
| 2026-04-24 15:46 | 24.55535 | 39.71250 | 2167 ft | 0 kts | 78° |